NCAR-RAP Real-Time Weather Data

Output produced by METARs form (18 August 2018  01:02 UTC)
found at http://weather.rap.ucar.edu/surface/
 
RJFK 180000Z 09008KT 070V130 9999 FEW010 SCT035 BKN070 24/18 Q1011 RMK 1CU010 3CU035 6AC070 A2986 VOLCANIC ASH CLOUD S-SW
RJFK 172300Z 10005KT 9999 VCFG FEW020 SCT045 BKN080 24/18 Q1010 RMK 1CU020 3SC045 6AC080 A2985 FG N-NE VOLCANIC ASH CLOUD S-SW
RJFK 172200Z 11005KT 9999 BCFG FEW020 BKN040 BKN070 24/17 Q1010 RMK 1CU020 5CU040 7AC070 A2984 FG N-NE VOLCANIC ASH CLOUD S-SW
RJFK 172100Z 10003KT 070V140 9999 BCFG FEW025 BKN040 BKN060 23/19 Q1010 RMK 1CU025 6CU040 7SC060 A2984 FG N-NE VOLCANIC ASH CLOUD S-SW
RJFK 171200Z 07006KT 020V100 9999 FEW020 BKN035 BKN/// 25/20 Q1009
RJFK 171100Z 08005KT 040V120 9999 FEW010 BKN035 BKN/// 24/21 Q1009
RJFK 171000Z 09009KT 9999 VCSH FEW010 FEW025CB BKN035 BKN/// 25/21 Q1008 RMK 1CU010 1CB025 6CU035 A2979 CB 20KM NW AND 10KM NE STNR VOLCANIC ASH CLOUD S
RJFK 170900Z 11009KT 9999 VCSH FEW020 FEW025CB SCT035 BKN/// 26/22 Q1008 RMK 1CU020 1CB025 3CU035 A2978 CB 20KM NW STNR VOLCANIC ASH CLOUD S
RJFK 170800Z 10009KT 9999 VCSH FEW020 FEW025CB SCT035 BKN/// 27/23 Q1008
RJFK 170700Z 12006KT 9999 VCSH FEW015 SCT030 FEW035TCU BKN/// 29/23 Q1007 RMK 1CU015 3CU030 1TCU035 A2975 TCU 10KM NW MOV W VOLCANIC ASH CLOUD S
RJFK 170600Z 14007KT 100V180 9999 VCSH FEW020 FEW025TCU BKN/// 30/23 Q1007
RJFK 170515Z 16010KT 9999 FEW020 FEW025CB BKN/// 30/24 Q1008 RMK 2CU020 1CB025 A2977 CB 20KM SE STNR
RJFK 170500Z 10006KT 050V140 9999 FEW020 FEW025CB BKN/// 30/24 Q1008 RMK 2CU020 1CB025 A2977 CB 20KM SE-S STNR
RJFK 170400Z 10008KT 9999 FEW015 SCT025 BKN/// 29/24 Q1008
RJFK 170300Z 12006KT 070V160 9999 FEW015 SCT025 BKN/// 30/24 Q1008
RJFK 170200Z 11007KT 070V140 9999 FEW020 BKN/// 29/24 Q1009 RMK 2CU020 A2980 VOLCANIC ASH CLOUD S
RJFK 170100Z 09007KT 060V120 9999 FEW015 BKN/// 28/24 Q1009 RMK 2CU015 A2981 VOLCANIC ASH CLOUD S-SW
RJFK 170000Z 10005KT 060V140 9999 FEW015 SCT150 BKN/// 27/25 Q1009 RMK 1CU015 3AC150 A2982 VOLCANIC ASH CLOUD S-SW
RJFK 162300Z 08003KT 020V120 9999 PRFG FEW015 SCT150 BKN/// 25/24 Q1010
RJFK 162200Z 01003KT 9999 FEW015 SCT140 BKN/// 23/23 Q1010
RJFK 162100Z 04003KT 9999 BCFG FEW015 BKN/// 23/23 Q1009 RMK 1CU015 A2979 FG N-E VOLCANIC ASH CLOUD S
RJFK 161200Z 11008KT CAVOK 26/24 Q1010 RMK A2983
RJFK 161100Z 10006KT 9999 FEW030 BKN/// 26/24 Q1010
RJFK 161000Z 10005KT 9999 VCSH FEW020 FEW030TCU BKN/// 26/24 Q1009 RMK 2CU020 1TCU030 A2981 TCU 20KM NE MOV NW
RJFK 160900Z 13005KT 090V160 9999 FEW015 SCT025 BKN/// 28/24 Q1009
RJFK 160800Z 13008KT 9999 VCVA FEW015 BKN025 BKN/// 29/24 Q1008 RMK 1CU015 6CU025 A2978 ASH FALL VOLCANIC ASH CLOUD S-SW
RJFK 160700Z 09005KT 050V120 9999 VCSH FEW010 SCT030 BKN/// 28/25 Q1008 RMK 1CU010 4CU030 A2977
RJFK 160600Z 12006KT 9999 -SHRA FEW010 BKN030 BKN/// 28/26 Q1008
RJFK 160538Z 12008KT 9999 -SHRA FEW010 SCT020 BKN040 28/25 Q1008 RMK 1CU010 4CU020 6CU040 A2979
RJFK 160500Z 11009KT 080V140 9999 VCVA VCSH FEW015 SCT030 BKN/// 29/25 Q1008
RJFK 160400Z 10006KT 050V130 9999 VCSH FEW015 SCT035 BKN140 27/25 Q1009 RMK 1CU015 3CU035 6AC140 A2979 VOLCANIC ASH CLOUD S
RJFK 160300Z 11007KT 060V170 9999 VCSH FEW015 SCT025 BKN/// 30/25 Q1008
RJFK 160200Z 09006KT 060V130 9999 VCVA FEW015 SCT030 BKN/// 29/25 Q1009 RMK 1CU015 3CU030 A2981 ASH FALL VOLCANIC ASH CLOUD S
RJFK 160100Z 11006KT 9999 VCVA FEW015 SCT030 BKN/// 28/24 Q1009 RMK 1CU015 3CU030 A2980 ASH FALL VOLCANIC ASH CLOUD S-SW
RJFK 160000Z 11006KT 070V160 9999 VCVA FEW010 SCT030 BKN/// 27/25 Q1008
RJFK 152300Z 11007KT 9999 VCVA FEW010 SCT035 BKN/// 27/25 Q1008 RMK 1CU010 3CU035 A2977 ASH FALL VOLCANIC ASH CLOUD S-SW
RJFK 152219Z 11007KT 9999 VCVA FEW010 SCT035 BKN/// 26/25 Q1008 RMK 1CU010 3CU035 A2978 ASH FALL VOLCANIC ASH CLOUD S-SW
RJFK 152200Z 12005KT 9999 FEW010 SCT035 BKN/// 26/25 Q1008 RMK 1CU010 3CU035 A2978 VOLCANIC ASH CLOUD S
RJFK 152100Z 07003KT 050V110 9999 FEW005 BKN035 BKN/// 25/25 Q1008 RMK 1ST005 5CU035 A2978 VOLCANIC ASH CLOUD S